createdAt,value
2018-12-15T00:01:18.076Z,16.82
2018-12-15T00:03:48.639Z,17.67
2018-12-15T00:06:17.769Z,18.30
2018-12-15T00:08:46.863Z,17.75
2018-12-15T00:11:16.384Z,16.82
2018-12-15T00:13:46.727Z,17.00
2018-12-15T00:16:15.914Z,16.25
2018-12-15T00:18:45.171Z,15.18
2018-12-15T00:21:14.272Z,15.70
2018-12-15T00:23:43.731Z,16.75
2018-12-15T00:26:13.499Z,13.83
2018-12-15T00:28:42.913Z,14.45
2018-12-15T00:31:11.930Z,13.22
2018-12-15T00:33:40.992Z,12.82
2018-12-15T00:36:10.540Z,13.90
2018-12-15T00:38:39.865Z,13.45
2018-12-15T00:41:08.928Z,13.35
2018-12-15T00:43:38.008Z,12.50
2018-12-15T00:46:07.068Z,12.53
2018-12-15T00:48:36.139Z,12.58
2018-12-15T00:51:06.490Z,12.68
2018-12-15T00:53:36.438Z,12.33
2018-12-15T00:56:05.991Z,11.85
2018-12-15T00:58:35.412Z,11.70
2018-12-15T01:01:04.617Z,12.00
2018-12-15T01:03:34.543Z,11.22
2018-12-15T01:06:04.003Z,10.78
2018-12-15T01:08:33.047Z,10.58
2018-12-15T01:11:03.292Z,10.55
2018-12-15T01:13:32.581Z,10.50
2018-12-15T01:16:01.644Z,9.33
2018-12-15T01:18:31.121Z,9.00
2018-12-15T01:21:00.696Z,10.23
2018-12-15T01:23:30.023Z,9.95
2018-12-15T01:25:59.091Z,10.90
2018-12-15T01:28:28.802Z,9.85
2018-12-15T01:30:57.935Z,10.00
2018-12-15T01:33:27.763Z,10.40
2018-12-15T01:35:56.836Z,10.53
2018-12-15T01:38:25.881Z,10.93
2018-12-15T01:40:54.918Z,10.35
2018-12-15T01:43:23.995Z,10.08
2018-12-15T01:45:53.022Z,11.48
2018-12-15T01:48:22.347Z,11.30
2018-12-15T01:50:51.419Z,10.50
2018-12-15T01:53:21.983Z,11.15
2018-12-15T01:55:51.044Z,12.85
2018-12-15T01:58:20.181Z,11.63
2018-12-15T02:00:49.264Z,11.53
2018-12-15T02:03:18.655Z,12.78
2018-12-15T02:05:48.528Z,10.93
2018-12-15T02:08:18.522Z,12.53
2018-12-15T02:10:47.749Z,12.03
2018-12-15T02:13:16.770Z,11.03
2018-12-15T02:15:46.761Z,11.70
2018-12-15T02:18:15.775Z,10.65
2018-12-15T02:20:44.923Z,11.10
2018-12-15T02:23:13.992Z,11.43
2018-12-15T02:25:43.900Z,11.65
2018-12-15T02:28:13.749Z,11.45
2018-12-15T02:30:43.394Z,13.25
2018-12-15T02:33:12.487Z,11.68
2018-12-15T02:35:42.035Z,10.98
2018-12-15T02:38:11.145Z,10.45
2018-12-15T02:40:40.205Z,11.28
2018-12-15T02:43:09.353Z,11.25
2018-12-15T02:45:38.839Z,11.33
2018-12-15T02:48:07.916Z,12.88
2018-12-15T02:50:37.291Z,9.45
2018-12-15T02:53:06.551Z,10.68
2018-12-15T02:55:36.285Z,9.70
2018-12-15T02:58:05.611Z,9.88
2018-12-15T03:00:34.909Z,9.83
2018-12-15T03:03:04.722Z,9.55
2018-12-15T03:05:33.821Z,8.33
2018-12-15T03:08:03.320Z,9.28
2018-12-15T03:10:40.003Z,9.70
2018-12-15T03:13:09.101Z,8.98
2018-12-15T03:15:38.285Z,8.43
2018-12-15T03:18:08.395Z,8.13
2018-12-15T03:20:37.406Z,8.75
2018-12-15T03:23:06.507Z,8.53
2018-12-15T03:25:35.565Z,8.73
2018-12-15T03:28:04.728Z,8.43
2018-12-15T03:30:33.793Z,8.45
2018-12-15T03:33:02.876Z,8.05
2018-12-15T03:35:32.514Z,7.58
2018-12-15T03:38:01.662Z,9.65
2018-12-15T03:40:31.075Z,8.05
2018-12-15T03:43:00.484Z,8.65
2018-12-15T03:45:30.012Z,7.87
2018-12-15T03:47:59.524Z,9.85
2018-12-15T03:50:28.768Z,9.93
2018-12-15T03:52:57.802Z,9.05
2018-12-15T03:55:26.850Z,8.75
2018-12-15T03:57:56.196Z,7.85
2018-12-15T04:00:26.205Z,8.80
2018-12-15T04:02:55.399Z,7.83
2018-12-15T04:05:24.896Z,8.20
2018-12-15T04:07:53.998Z,8.55
2018-12-15T04:10:23.958Z,8.68
2018-12-15T04:12:53.452Z,7.92
2018-12-15T04:15:22.520Z,9.85
2018-12-15T04:17:52.044Z,7.85
2018-12-15T04:20:21.137Z,7.85
2018-12-15T04:22:50.193Z,7.72
2018-12-15T04:25:19.255Z,7.10
2018-12-15T04:27:48.275Z,8.55
2018-12-15T04:30:17.400Z,6.83
2018-12-15T04:32:46.537Z,8.23
2018-12-15T04:35:15.912Z,9.23
2018-12-15T04:37:44.955Z,7.05
2018-12-15T04:40:14.355Z,8.55
2018-12-15T04:42:43.708Z,7.80
2018-12-15T04:45:13.981Z,8.50
2018-12-15T04:47:43.673Z,8.58
2018-12-15T04:50:13.156Z,8.00
2018-12-15T04:52:42.814Z,8.13
2018-12-15T04:55:12.248Z,8.13
2018-12-15T04:57:41.373Z,9.03
2018-12-15T05:00:10.458Z,8.43
2018-12-15T05:02:43.820Z,9.03
2018-12-15T05:05:11.228Z,8.85
2018-12-15T05:07:40.296Z,8.80
2018-12-15T05:10:09.532Z,8.55
2018-12-15T05:12:38.946Z,9.43
2018-12-15T05:15:08.404Z,9.53
2018-12-15T05:17:37.498Z,9.08
2018-12-15T05:20:07.414Z,9.93
2018-12-15T05:22:36.854Z,9.15
2018-12-15T05:25:05.965Z,8.25
2018-12-15T05:27:35.049Z,10.10
2018-12-15T05:30:04.436Z,9.50
2018-12-15T05:32:34.223Z,10.08
2018-12-15T05:35:03.384Z,9.35
2018-12-15T05:37:32.856Z,9.15
2018-12-15T05:40:02.129Z,9.70
2018-12-15T05:42:31.232Z,8.90
2018-12-15T05:45:00.308Z,9.18
2018-12-15T05:47:29.360Z,9.30
2018-12-15T05:49:58.430Z,9.83
2018-12-15T05:52:27.546Z,10.23
2018-12-15T05:54:56.589Z,11.15
2018-12-15T05:57:25.872Z,11.97
2018-12-15T05:59:54.935Z,10.40
2018-12-15T06:02:24.386Z,9.73
2018-12-15T06:04:54.408Z,10.80
2018-12-15T06:07:23.470Z,9.45
2018-12-15T06:09:52.589Z,11.53
2018-12-15T06:12:21.816Z,11.22
2018-12-15T06:14:51.630Z,10.55
2018-12-15T06:17:21.092Z,11.30
2018-12-15T06:19:50.526Z,10.30
2018-12-15T06:22:19.602Z,10.35
2018-12-15T06:24:48.713Z,12.03
2018-12-15T06:27:17.763Z,11.00
2018-12-15T06:29:46.829Z,10.75
2018-12-15T06:32:15.860Z,11.70
2018-12-15T06:34:45.025Z,11.30
2018-12-15T06:37:14.907Z,11.25
2018-12-15T06:39:43.976Z,13.08
2018-12-15T06:42:13.403Z,11.43
2018-12-15T06:44:42.516Z,14.10
2018-12-15T06:47:11.563Z,12.70
2018-12-15T06:49:41.052Z,13.22
2018-12-15T06:52:10.563Z,11.65
2018-12-15T06:54:39.978Z,12.78
2018-12-15T06:57:10.483Z,12.95
2018-12-15T06:59:39.559Z,13.20
2018-12-15T07:02:08.668Z,13.18
2018-12-15T07:04:38.164Z,11.15
2018-12-15T07:07:07.293Z,12.90
2018-12-15T07:09:36.351Z,12.50
2018-12-15T07:12:05.381Z,13.22
2018-12-15T07:14:34.456Z,14.10
2018-12-15T07:17:03.527Z,11.95
2018-12-15T07:19:32.635Z,11.68
2018-12-15T07:22:01.738Z,12.73
2018-12-15T07:24:31.245Z,12.13
2018-12-15T07:27:00.308Z,12.85
2018-12-15T07:29:29.552Z,12.15
2018-12-15T07:31:58.608Z,12.18
2018-12-15T07:34:27.766Z,11.85
2018-12-15T07:36:56.869Z,11.15
2018-12-15T07:39:25.908Z,11.80
2018-12-15T07:41:55.162Z,12.68
2018-12-15T07:44:24.287Z,12.28
2018-12-15T07:46:53.484Z,11.48
2018-12-15T07:49:22.837Z,12.18
2018-12-15T07:51:52.365Z,11.50
2018-12-15T07:54:21.839Z,13.05
2018-12-15T07:56:50.933Z,11.10
2018-12-15T07:59:20.118Z,11.57
2018-12-15T08:01:49.569Z,11.95
2018-12-15T08:04:18.769Z,11.12
2018-12-15T08:06:48.320Z,12.70
2018-12-15T08:09:17.995Z,11.93
2018-12-15T08:11:53.157Z,12.35
2018-12-15T08:14:22.279Z,12.10
2018-12-15T08:16:51.387Z,12.30
2018-12-15T08:19:20.434Z,12.25
2018-12-15T08:21:49.539Z,13.38
2018-12-15T08:24:18.664Z,12.13
2018-12-15T08:26:47.753Z,12.35
2018-12-15T08:29:16.773Z,11.20
2018-12-15T08:31:46.184Z,10.98
2018-12-15T08:34:15.797Z,12.95
2018-12-15T08:36:44.813Z,12.25
2018-12-15T08:39:14.524Z,13.18
2018-12-15T08:41:43.684Z,12.95
2018-12-15T08:44:12.805Z,14.10
2018-12-15T08:46:42.300Z,13.13
2018-12-15T08:49:11.326Z,12.55
2018-12-15T08:51:40.425Z,13.45
2018-12-15T08:54:09.519Z,13.32
2018-12-15T08:56:39.424Z,13.55
2018-12-15T08:59:08.868Z,15.05
2018-12-15T09:01:37.976Z,14.70
2018-12-15T09:04:07.071Z,13.40
2018-12-15T09:06:36.123Z,13.60
2018-12-15T09:09:06.436Z,14.58
2018-12-15T09:11:35.533Z,14.43
2018-12-15T09:14:04.604Z,14.33
2018-12-15T09:16:34.293Z,15.58
2018-12-15T09:19:03.335Z,15.60
2018-12-15T09:21:32.411Z,14.07
2018-12-15T09:24:01.896Z,15.32
2018-12-15T09:26:31.002Z,14.60
2018-12-15T09:29:00.799Z,15.30
2018-12-15T09:31:30.286Z,14.55
2018-12-15T09:34:00.080Z,15.25
2018-12-15T09:36:29.115Z,15.70
2018-12-15T09:38:58.639Z,13.88
2018-12-15T09:41:28.670Z,16.17
2018-12-15T09:43:58.162Z,15.65
2018-12-15T09:46:27.616Z,15.08
2018-12-15T09:48:56.675Z,16.32
2018-12-15T09:51:26.144Z,15.20
2018-12-15T09:53:55.238Z,17.07
2018-12-15T09:56:24.848Z,21.02
2018-12-15T09:58:53.903Z,26.57
2018-12-15T10:01:22.990Z,25.88
2018-12-15T10:03:52.067Z,27.50
2018-12-15T10:06:21.135Z,18.15
2018-12-15T10:08:50.202Z,18.73
2018-12-15T10:11:19.297Z,23.20
2018-12-15T10:13:48.396Z,18.67
2018-12-15T10:16:17.456Z,19.50
2018-12-15T10:18:46.612Z,14.05
2018-12-15T10:21:15.704Z,17.10
2018-12-15T10:23:45.117Z,15.23
2018-12-15T10:26:14.146Z,17.20
2018-12-15T10:28:43.622Z,17.75
2018-12-15T10:31:26.363Z,14.90
2018-12-15T10:33:55.479Z,17.82
2018-12-15T10:36:25.144Z,36.80
2018-12-15T10:38:54.233Z,25.50
2018-12-15T10:41:23.655Z,35.83
2018-12-15T10:43:53.088Z,18.17
2018-12-15T10:46:22.452Z,20.08
2018-12-15T10:48:51.511Z,19.32
2018-12-15T10:51:20.938Z,18.07
2018-12-15T10:53:50.073Z,20.20
2018-12-15T10:56:19.185Z,24.40
2018-12-15T10:58:48.704Z,20.27
2018-12-15T11:01:21.983Z,20.15
2018-12-15T11:03:51.069Z,18.42
2018-12-15T11:06:20.130Z,17.90
2018-12-15T11:08:49.819Z,18.95
2018-12-15T11:11:19.699Z,18.00
2018-12-15T11:13:48.756Z,16.93
2018-12-15T11:16:18.117Z,17.73
2018-12-15T11:18:47.216Z,17.40
2018-12-15T11:21:16.303Z,18.30
2018-12-15T11:23:46.153Z,16.45
2018-12-15T11:26:15.211Z,17.23
2018-12-15T11:28:45.214Z,16.75
2018-12-15T11:31:14.317Z,17.00
2018-12-15T11:33:44.159Z,17.42
2018-12-15T11:36:14.188Z,16.02
2018-12-15T11:38:43.293Z,18.10
2018-12-15T11:41:12.307Z,15.48
2018-12-15T11:43:41.421Z,17.30
2018-12-15T11:46:10.927Z,18.50
2018-12-15T11:48:39.950Z,16.60
2018-12-15T11:51:09.012Z,17.15
2018-12-15T11:53:38.038Z,18.12
2018-12-15T11:56:07.757Z,17.15
2018-12-15T11:58:37.296Z,16.77
2018-12-15T12:01:06.358Z,17.90
2018-12-15T12:03:36.179Z,15.93
2018-12-15T12:06:05.282Z,16.52
2018-12-15T12:08:34.380Z,16.35
2018-12-15T12:11:03.453Z,18.10
2018-12-15T12:13:32.535Z,15.55
2018-12-15T12:16:01.608Z,15.88
2018-12-15T12:18:30.664Z,17.57
2018-12-15T12:20:59.775Z,18.00
2018-12-15T12:23:28.834Z,17.52
2018-12-15T12:25:57.896Z,18.55
2018-12-15T12:28:26.953Z,20.43
2018-12-15T12:30:56.084Z,19.17
2018-12-15T12:33:25.140Z,16.70
2018-12-15T12:35:55.155Z,18.02
2018-12-15T12:38:24.191Z,19.35
2018-12-15T12:40:54.079Z,18.10
2018-12-15T12:43:23.171Z,17.52
2018-12-15T12:45:52.454Z,19.75
2018-12-15T12:48:21.580Z,18.60
2018-12-15T12:50:50.664Z,19.25
2018-12-15T12:53:19.713Z,18.30
2018-12-15T12:55:49.076Z,17.17
2018-12-15T12:58:18.173Z,18.12
2018-12-15T13:00:47.274Z,17.37
2018-12-15T13:03:16.437Z,17.75
2018-12-15T13:05:46.200Z,15.50
2018-12-15T13:08:15.934Z,18.80
2018-12-15T13:10:45.041Z,20.95
2018-12-15T13:13:14.234Z,20.17
2018-12-15T13:15:43.291Z,23.38
2018-12-15T13:18:12.376Z,25.85
2018-12-15T13:20:41.427Z,20.95
2018-12-15T13:23:10.632Z,18.55
2018-12-15T13:25:39.657Z,17.37
2018-12-15T13:28:09.172Z,17.90
2018-12-15T13:30:38.252Z,18.48
2018-12-15T13:33:25.584Z,17.87
2018-12-15T13:35:55.227Z,18.42
2018-12-15T13:38:24.292Z,19.12
2018-12-15T13:40:53.747Z,18.20
2018-12-15T13:43:22.819Z,17.98
2018-12-15T13:45:51.876Z,17.80
2018-12-15T13:48:21.287Z,18.75
2018-12-15T13:53:25.989Z,19.73
2018-12-15T13:55:55.003Z,17.42
2018-12-15T13:58:24.136Z,19.10
2018-12-15T14:00:53.525Z,18.12
2018-12-15T14:03:22.580Z,18.90
2018-12-15T14:05:51.635Z,18.73
2018-12-15T14:08:20.787Z,19.95
2018-12-15T14:10:49.877Z,18.70
2018-12-15T14:13:19.374Z,21.87
2018-12-15T14:15:48.451Z,19.87
2018-12-15T14:18:17.543Z,20.85
2018-12-15T14:20:46.974Z,23.92
2018-12-15T14:23:16.046Z,21.10
2018-12-15T14:25:45.141Z,21.97
2018-12-15T14:28:14.546Z,19.90
2018-12-15T14:30:43.615Z,22.25
2018-12-15T14:33:12.700Z,23.57
2018-12-15T14:35:42.175Z,20.30
2018-12-15T14:38:11.333Z,33.35
2018-12-15T14:40:40.600Z,20.55
2018-12-15T14:43:09.857Z,20.65
2018-12-15T14:45:38.954Z,19.60
2018-12-15T14:48:08.061Z,21.17
2018-12-15T14:50:37.498Z,22.40
2018-12-15T14:53:06.531Z,19.37
2018-12-15T14:55:35.590Z,22.52
2018-12-15T14:58:04.699Z,23.95
2018-12-15T15:00:34.310Z,21.95
2018-12-15T15:03:03.375Z,25.35
2018-12-15T15:05:32.480Z,25.15
2018-12-15T15:08:01.803Z,21.17
2018-12-15T15:10:30.882Z,18.70
2018-12-15T15:12:59.976Z,20.10
2018-12-15T15:15:29.724Z,20.90
2018-12-15T15:17:58.754Z,23.07
2018-12-15T15:20:29.944Z,25.05
2018-12-15T15:22:58.917Z,26.60
2018-12-15T15:25:28.022Z,30.40
2018-12-15T15:27:57.075Z,21.52
2018-12-15T15:30:26.129Z,22.37
2018-12-15T15:32:55.230Z,22.20
2018-12-15T15:35:24.258Z,22.75
2018-12-15T15:37:53.291Z,25.55
2018-12-15T15:40:22.321Z,22.55
2018-12-15T15:42:51.799Z,21.35
2018-12-15T15:45:20.910Z,22.48
2018-12-15T15:47:50.005Z,23.00
2018-12-15T15:50:19.451Z,22.60
2018-12-15T15:52:48.481Z,23.30
2018-12-15T15:55:17.541Z,22.25
2018-12-15T15:57:46.571Z,22.87
2018-12-15T16:00:15.689Z,22.85
2018-12-15T16:02:45.079Z,23.18
2018-12-15T16:05:14.283Z,21.93
2018-12-15T16:07:43.778Z,23.45
2018-12-15T16:10:12.881Z,23.77
2018-12-15T16:12:42.401Z,24.80
2018-12-15T16:15:11.440Z,23.98
2018-12-15T16:17:40.582Z,23.90
2018-12-15T16:20:10.663Z,23.85
2018-12-15T16:22:39.768Z,23.00
2018-12-15T16:25:09.253Z,24.82
2018-12-15T16:27:38.275Z,22.30
2018-12-15T16:30:08.958Z,24.95
2018-12-15T16:32:38.038Z,23.30
2018-12-15T16:35:07.560Z,23.52
2018-12-15T16:37:36.979Z,23.83
2018-12-15T16:40:07.200Z,24.30
2018-12-15T16:42:36.265Z,24.30
2018-12-15T16:45:08.092Z,25.50
2018-12-15T16:47:37.262Z,24.55
2018-12-15T16:50:09.909Z,23.83
2018-12-15T16:52:39.579Z,23.60
2018-12-15T16:55:08.680Z,26.37
2018-12-15T16:57:37.800Z,23.83
2018-12-15T17:00:09.964Z,25.10
2018-12-15T17:02:39.615Z,27.87
2018-12-15T17:05:08.675Z,26.35
2018-12-15T17:07:38.097Z,26.02
2018-12-15T17:10:07.464Z,32.63
2018-12-15T17:12:36.628Z,26.48
2018-12-15T17:15:06.395Z,24.50
2018-12-15T17:17:35.493Z,27.87
2018-12-15T17:20:07.380Z,25.57
2018-12-15T17:22:36.452Z,26.57
2018-12-15T17:25:07.032Z,25.92
2018-12-15T17:27:36.522Z,24.50
2018-12-15T17:30:07.724Z,28.10
2018-12-15T17:32:40.162Z,37.60
2018-12-15T17:35:09.364Z,29.20
2018-12-15T17:37:38.382Z,39.38
2018-12-15T17:40:08.089Z,36.40
2018-12-15T17:42:37.455Z,32.23
2018-12-15T17:45:07.116Z,26.90
2018-12-15T17:47:36.277Z,29.15
2018-12-15T17:50:06.227Z,32.65
2018-12-15T17:52:35.251Z,41.92
2018-12-15T17:55:06.198Z,28.30
2018-12-15T17:57:35.964Z,25.55
2018-12-15T18:00:08.668Z,27.48
2018-12-15T18:02:38.041Z,25.05
2018-12-15T18:05:07.436Z,26.33
2018-12-15T18:07:36.483Z,24.60
2018-12-15T18:10:07.689Z,26.00
2018-12-15T18:12:36.752Z,26.12
2018-12-15T18:15:06.466Z,24.27
2018-12-15T18:17:35.569Z,24.47
2018-12-15T18:20:05.332Z,25.77
2018-12-15T18:22:34.394Z,26.82
2018-12-15T18:25:03.436Z,25.82
2018-12-15T18:27:33.041Z,33.25
2018-12-15T18:30:02.057Z,40.50
2018-12-15T18:32:31.323Z,28.12
2018-12-15T18:35:00.350Z,27.90
2018-12-15T18:37:29.418Z,29.23
2018-12-15T18:39:58.468Z,26.82
2018-12-15T18:42:53.074Z,26.17
2018-12-15T18:45:22.409Z,26.60
2018-12-15T18:47:51.513Z,23.83
2018-12-15T18:50:20.558Z,26.82
2018-12-15T18:52:49.945Z,25.90
2018-12-15T18:55:18.996Z,24.27
2018-12-15T18:57:48.088Z,25.90
2018-12-15T19:00:17.133Z,26.57
2018-12-15T19:02:46.167Z,25.82
2018-12-15T19:05:15.598Z,24.77
2018-12-15T19:07:44.634Z,25.77
2018-12-15T19:10:14.067Z,25.97
2018-12-15T19:12:43.124Z,24.47
2018-12-15T19:15:12.193Z,24.65
2018-12-15T19:17:41.286Z,27.60
2018-12-15T19:20:10.336Z,25.35
2018-12-15T19:22:39.427Z,26.30
2018-12-15T19:25:08.520Z,31.90
2018-12-15T19:27:37.917Z,28.35
2018-12-15T19:30:07.762Z,27.93
2018-12-15T19:32:36.827Z,27.17
2018-12-15T19:35:05.938Z,41.18
2018-12-15T19:37:35.394Z,33.55
2018-12-15T19:40:06.204Z,30.75
2018-12-15T19:42:35.263Z,30.10
2018-12-15T19:45:07.400Z,28.07
2018-12-15T19:47:36.450Z,28.98
2018-12-15T19:50:06.558Z,26.60
2018-12-15T19:52:35.577Z,30.80
2018-12-15T19:55:06.221Z,26.42
2018-12-15T19:57:35.273Z,30.97
2018-12-15T20:00:06.994Z,25.55
2018-12-15T20:02:36.062Z,28.55
2018-12-15T20:05:05.130Z,26.95
2018-12-15T20:07:34.155Z,29.57
2018-12-15T20:10:04.534Z,28.95
2018-12-15T20:12:33.621Z,35.40
2018-12-15T20:15:02.652Z,35.30
2018-12-15T20:17:32.485Z,39.13
2018-12-15T20:20:01.847Z,38.50
2018-12-15T20:22:31.311Z,30.15
2018-12-15T20:25:00.364Z,28.02
2018-12-15T20:27:29.433Z,30.17
2018-12-15T20:29:58.613Z,28.60
2018-12-15T20:32:27.630Z,30.45
2018-12-15T20:34:57.095Z,29.72
2018-12-15T20:37:26.856Z,28.80
2018-12-15T20:39:55.881Z,30.43
2018-12-15T20:42:24.914Z,29.70
2018-12-15T20:44:54.096Z,30.32
2018-12-15T20:47:27.817Z,28.70
2018-12-15T20:49:54.224Z,29.82
2018-12-15T20:52:23.681Z,31.42
2018-12-15T20:54:53.562Z,29.75
2018-12-15T20:57:22.628Z,31.17
2018-12-15T20:59:51.685Z,30.15
2018-12-15T21:02:21.046Z,31.23
2018-12-15T21:04:50.066Z,30.88
2018-12-15T21:07:19.128Z,29.20
2018-12-15T21:09:48.188Z,29.37
2018-12-15T21:12:17.352Z,30.15
2018-12-15T21:14:46.401Z,28.70
2018-12-15T21:17:15.470Z,30.08
2018-12-15T21:19:47.793Z,29.37
2018-12-15T21:22:15.551Z,30.20
2018-12-15T21:24:44.982Z,30.10
2018-12-15T21:27:14.047Z,31.23
2018-12-15T21:29:43.067Z,28.12
2018-12-15T21:32:12.212Z,30.72
2018-12-15T21:34:41.268Z,29.67
2018-12-15T21:37:10.360Z,31.05
2018-12-15T21:39:39.441Z,31.57
2018-12-15T21:42:09.060Z,29.92
2018-12-15T21:44:38.117Z,29.50
2018-12-15T21:47:07.151Z,30.37
2018-12-15T21:49:36.182Z,31.80
2018-12-15T21:52:05.684Z,33.28
2018-12-15T21:54:34.770Z,30.92
2018-12-15T21:57:03.854Z,31.33
2018-12-15T21:59:32.904Z,34.45
2018-12-15T22:02:01.969Z,33.50
2018-12-15T22:04:31.027Z,30.75
2018-12-15T22:07:00.091Z,31.90
2018-12-15T22:09:29.179Z,33.35
2018-12-15T22:11:59.193Z,28.92
2018-12-15T22:14:28.256Z,30.17
2018-12-15T22:16:57.352Z,30.45
2018-12-15T22:19:26.530Z,29.10
2018-12-15T22:22:00.072Z,30.68
2018-12-15T22:24:27.225Z,32.40
2018-12-15T22:26:56.312Z,28.95
2018-12-15T22:29:25.326Z,30.77
2018-12-15T22:31:54.425Z,29.75
2018-12-15T22:34:23.571Z,29.00
2018-12-15T22:36:52.632Z,31.57
2018-12-15T22:39:21.692Z,33.90
2018-12-15T22:41:51.246Z,32.90
2018-12-15T22:44:20.353Z,31.75
2018-12-15T22:46:49.367Z,29.12
2018-12-15T22:49:18.402Z,32.45
2018-12-15T22:51:47.502Z,32.00
2018-12-15T22:54:17.030Z,31.27
2018-12-15T22:56:46.100Z,31.93
2018-12-15T22:59:15.163Z,32.73
2018-12-15T23:01:46.016Z,31.65
2018-12-15T23:04:15.128Z,37.17
2018-12-15T23:06:44.729Z,34.05
2018-12-15T23:09:14.365Z,33.42
2018-12-15T23:11:44.279Z,38.07
2018-12-15T23:14:13.724Z,33.35
2018-12-15T23:16:42.792Z,34.88
2018-12-15T23:19:11.893Z,33.48
2018-12-15T23:21:41.264Z,35.58
2018-12-15T23:24:10.620Z,34.08
2018-12-15T23:26:40.112Z,31.48
2018-12-15T23:29:09.134Z,31.15
2018-12-15T23:31:38.224Z,32.83
2018-12-15T23:34:07.680Z,33.10
2018-12-15T23:36:37.171Z,31.52
2018-12-15T23:39:07.067Z,33.33
2018-12-15T23:41:36.183Z,32.70
2018-12-15T23:44:05.258Z,32.85
2018-12-15T23:46:34.274Z,31.95
2018-12-15T23:49:03.348Z,33.55
2018-12-15T23:51:32.405Z,32.03
2018-12-15T23:54:01.885Z,31.60
2018-12-15T23:56:30.902Z,31.35
2018-12-15T23:59:00.605Z,34.03
